createdAt,value
2017-11-22T00:01:26.864Z,7.93
2017-11-22T00:03:53.404Z,7.63
2017-11-22T00:06:19.809Z,7.00
2017-11-22T00:08:46.189Z,7.90
2017-11-22T00:11:12.573Z,7.67
2017-11-22T00:13:38.925Z,8.67
2017-11-22T00:16:05.357Z,7.73
2017-11-22T00:18:31.690Z,8.33
2017-11-22T00:20:58.041Z,10.47
2017-11-22T00:23:24.414Z,9.80
2017-11-22T00:25:50.782Z,11.23
2017-11-22T00:28:17.137Z,10.10
2017-11-22T00:30:43.524Z,13.50
2017-11-22T00:33:09.983Z,10.53
2017-11-22T00:35:36.416Z,11.90
2017-11-22T00:38:02.849Z,14.57
2017-11-22T00:40:29.191Z,13.60
2017-11-22T00:42:55.544Z,14.63
2017-11-22T00:45:21.986Z,12.43
2017-11-22T00:47:48.353Z,14.30
2017-11-22T00:50:14.810Z,16.87
2017-11-22T00:52:41.345Z,16.50
2017-11-22T00:55:07.698Z,16.53
2017-11-22T00:57:34.108Z,16.20
2017-11-22T01:00:00.500Z,14.30
2017-11-22T01:02:26.874Z,15.40
2017-11-22T01:04:53.257Z,17.43
2017-11-22T01:07:19.666Z,14.57
2017-11-22T01:09:46.018Z,16.43
2017-11-22T01:12:12.373Z,12.90
2017-11-22T01:14:38.781Z,15.00
2017-11-22T01:17:05.162Z,16.07
2017-11-22T01:19:31.496Z,15.20
2017-11-22T01:21:57.910Z,16.13
2017-11-22T01:24:24.259Z,17.13
2017-11-22T01:26:50.609Z,16.97
2017-11-22T01:29:16.995Z,17.97
2017-11-22T01:31:43.353Z,18.40
2017-11-22T01:34:09.758Z,15.20
2017-11-22T01:36:36.273Z,14.97
2017-11-22T01:39:02.704Z,15.07
2017-11-22T01:41:29.086Z,14.57
2017-11-22T01:43:55.522Z,20.17
2017-11-22T01:46:21.901Z,15.03
2017-11-22T01:48:48.362Z,15.80
2017-11-22T01:51:14.797Z,17.53
2017-11-22T01:53:41.251Z,16.33
2017-11-22T01:56:07.645Z,18.80
2017-11-22T01:58:34.025Z,18.47
2017-11-22T02:01:00.397Z,14.03
2017-11-22T02:03:26.792Z,14.97
2017-11-22T02:05:53.189Z,12.60
2017-11-22T02:08:19.571Z,15.40
2017-11-22T02:10:45.930Z,15.13
2017-11-22T02:13:12.328Z,15.73
2017-11-22T02:15:38.669Z,13.53
2017-11-22T02:18:05.026Z,15.63
2017-11-22T02:20:31.440Z,18.30
2017-11-22T02:22:57.813Z,12.87
2017-11-22T02:25:24.170Z,14.30
2017-11-22T02:27:50.577Z,15.17
2017-11-22T02:30:16.928Z,16.60
2017-11-22T02:32:43.309Z,15.03
2017-11-22T02:35:09.774Z,15.90
2017-11-22T02:37:36.148Z,23.57
2017-11-22T02:40:02.574Z,18.67
2017-11-22T02:42:29.231Z,16.87
2017-11-22T02:44:55.665Z,14.57
2017-11-22T02:47:22.111Z,13.27
2017-11-22T02:49:48.574Z,10.83
2017-11-22T02:52:15.135Z,13.90
2017-11-22T02:54:41.566Z,11.63
2017-11-22T02:57:08.051Z,14.03
2017-11-22T02:59:34.454Z,11.67
2017-11-22T03:02:00.843Z,13.00
2017-11-22T03:04:27.229Z,10.70
2017-11-22T03:06:53.607Z,11.40
2017-11-22T03:09:20.014Z,10.37
2017-11-22T03:11:46.600Z,9.57
2017-11-22T03:14:12.961Z,10.03
2017-11-22T03:16:39.336Z,8.30
2017-11-22T03:19:05.899Z,10.93
2017-11-22T03:21:32.277Z,8.40
2017-11-22T03:23:58.766Z,9.33
2017-11-22T03:26:25.194Z,9.83
2017-11-22T03:28:51.574Z,11.17
2017-11-22T03:31:18.050Z,8.90
2017-11-22T03:33:44.660Z,8.03
2017-11-22T03:36:11.184Z,8.07
2017-11-22T03:38:37.617Z,12.97
2017-11-22T03:41:04.065Z,8.93
2017-11-22T03:43:30.538Z,8.27
2017-11-22T03:45:56.950Z,9.53
2017-11-22T03:48:23.558Z,9.03
2017-11-22T03:50:56.033Z,9.87
2017-11-22T03:53:28.569Z,8.63
2017-11-22T03:55:55.098Z,9.23
2017-11-22T03:58:21.631Z,8.73
2017-11-22T04:00:48.113Z,9.87
2017-11-22T04:03:16.482Z,10.77
2017-11-22T04:05:48.845Z,11.57
2017-11-22T04:08:17.329Z,11.53
2017-11-22T04:10:43.832Z,14.00
2017-11-22T04:13:10.269Z,14.10
2017-11-22T04:15:36.650Z,10.83
2017-11-22T04:18:03.053Z,15.60
2017-11-22T04:20:30.417Z,12.93
2017-11-22T04:22:56.798Z,27.33
2017-11-22T04:25:23.216Z,17.87
2017-11-22T04:27:49.641Z,19.43
2017-11-22T04:30:16.270Z,22.50
2017-11-22T04:32:42.858Z,26.00
2017-11-22T04:35:09.270Z,38.20
2017-11-22T04:37:35.658Z,26.93
2017-11-22T04:40:02.021Z,30.80
2017-11-22T04:42:28.429Z,37.40
2017-11-22T04:44:54.921Z,49.57
2017-11-22T04:47:21.377Z,59.10
2017-11-22T04:49:47.852Z,52.30
2017-11-22T04:52:14.423Z,53.43
2017-11-22T04:54:40.902Z,48.03
2017-11-22T04:57:07.612Z,45.67
2017-11-22T04:59:34.010Z,43.00
2017-11-22T05:02:00.512Z,41.77
2017-11-22T05:04:27.000Z,38.30
2017-11-22T05:06:53.534Z,34.17
2017-11-22T05:09:20.070Z,32.43
2017-11-22T05:11:46.502Z,30.80
2017-11-22T05:14:12.914Z,30.23
2017-11-22T05:16:39.473Z,39.87
2017-11-22T05:19:05.985Z,33.87
2017-11-22T05:21:32.501Z,33.50
2017-11-22T05:23:59.079Z,27.90
2017-11-22T05:26:25.515Z,27.83
2017-11-22T05:28:51.944Z,23.60
2017-11-22T05:31:18.337Z,30.33
2017-11-22T05:33:44.819Z,60.93
2017-11-22T05:36:11.194Z,53.20
2017-11-22T05:38:37.678Z,35.43
2017-11-22T05:41:04.127Z,32.00
2017-11-22T05:43:30.647Z,34.03
2017-11-22T05:45:57.018Z,37.13
2017-11-22T05:48:23.457Z,29.10
2017-11-22T05:50:49.977Z,31.50
2017-11-22T05:53:16.400Z,31.13
2017-11-22T05:55:42.937Z,30.00
2017-11-22T05:58:09.351Z,33.27
2017-11-22T06:00:41.909Z,38.97
2017-11-22T06:03:08.418Z,51.10
2017-11-22T06:05:35.022Z,103.63
2017-11-22T06:08:01.586Z,135.50
2017-11-22T06:10:28.158Z,38.20
2017-11-22T06:12:54.737Z,39.90
2017-11-22T06:15:21.528Z,48.93
2017-11-22T06:17:48.084Z,52.10
2017-11-22T06:20:14.620Z,47.07
2017-11-22T06:22:41.193Z,57.13
2017-11-22T06:25:07.740Z,85.00
2017-11-22T06:27:34.178Z,114.10
2017-11-22T06:30:00.593Z,89.93
2017-11-22T06:32:27.073Z,73.37
2017-11-22T06:34:53.563Z,78.10
2017-11-22T06:37:19.917Z,67.80
2017-11-22T06:39:46.414Z,69.90
2017-11-22T06:42:12.834Z,63.30
2017-11-22T06:44:39.194Z,56.13
2017-11-22T06:47:05.601Z,58.43
2017-11-22T06:49:32.194Z,60.33
2017-11-22T06:51:58.621Z,51.40
2017-11-22T06:54:25.296Z,56.27
2017-11-22T06:56:51.813Z,56.70
2017-11-22T06:59:18.317Z,52.30
2017-11-22T07:01:50.956Z,49.10
2017-11-22T07:04:17.342Z,49.83
2017-11-22T07:06:43.894Z,45.83
2017-11-22T07:09:10.397Z,50.53
2017-11-22T07:11:37.963Z,52.03
2017-11-22T07:14:04.452Z,47.10
2017-11-22T07:16:36.902Z,50.03
2017-11-22T07:19:03.378Z,57.63
2017-11-22T07:21:30.135Z,65.87
2017-11-22T07:23:56.641Z,77.37
2017-11-22T07:26:23.010Z,70.17
2017-11-22T07:28:49.401Z,73.80
2017-11-22T07:31:15.977Z,83.60
2017-11-22T07:33:42.458Z,89.93
2017-11-22T07:36:14.837Z,94.70
2017-11-22T07:38:41.294Z,101.57
2017-11-22T07:41:07.805Z,95.80
2017-11-22T07:43:34.270Z,117.83
2017-11-22T07:46:00.670Z,96.53
2017-11-22T07:48:27.128Z,93.53
2017-11-22T07:50:58.668Z,87.67
2017-11-22T07:53:25.291Z,111.77
2017-11-22T07:55:51.701Z,127.10
2017-11-22T07:58:21.105Z,112.73
2017-11-22T08:00:47.563Z,85.33
2017-11-22T08:03:14.789Z,43.77
2017-11-22T08:05:41.298Z,37.67
2017-11-22T08:08:07.721Z,39.23
2017-11-22T08:10:34.144Z,19.10
2017-11-22T08:13:00.741Z,22.10
2017-11-22T08:15:27.197Z,17.27
2017-11-22T08:17:53.621Z,16.93
2017-11-22T08:20:20.230Z,19.93
2017-11-22T08:22:46.690Z,23.40
2017-11-22T08:25:13.125Z,26.07
2017-11-22T08:27:39.689Z,19.47
2017-11-22T08:30:06.093Z,22.23
2017-11-22T08:32:32.893Z,13.90
2017-11-22T08:34:59.369Z,24.33
2017-11-22T08:37:25.717Z,14.93
2017-11-22T08:39:52.342Z,12.07
2017-11-22T08:42:18.980Z,13.40
2017-11-22T08:44:45.385Z,11.40
2017-11-22T08:47:11.840Z,13.33
2017-11-22T08:49:38.487Z,13.27
2017-11-22T08:52:05.001Z,13.33
2017-11-22T08:54:37.405Z,10.90
2017-11-22T08:57:09.979Z,11.70
2017-11-22T08:59:36.913Z,10.80
2017-11-22T09:02:03.549Z,10.43
2017-11-22T09:04:30.327Z,12.60
2017-11-22T09:06:56.798Z,16.83
2017-11-22T09:09:23.245Z,13.93
2017-11-22T09:11:49.694Z,14.53
2017-11-22T09:14:16.226Z,17.30
2017-11-22T09:16:42.742Z,13.57
2017-11-22T09:19:11.166Z,12.53
2017-11-22T09:21:37.617Z,12.43
2017-11-22T09:24:04.932Z,12.53
2017-11-22T09:26:31.367Z,6.63
2017-11-22T09:28:57.815Z,8.47
2017-11-22T09:31:30.353Z,6.63
2017-11-22T09:34:04.670Z,6.80
2017-11-22T09:36:31.418Z,6.43
2017-11-22T09:38:57.840Z,5.97
2017-11-22T09:41:24.233Z,8.83
2017-11-22T09:43:50.909Z,8.20
2017-11-22T09:46:17.574Z,6.60
2017-11-22T09:48:43.954Z,10.70
2017-11-22T09:51:10.593Z,10.93
2017-11-22T09:53:37.079Z,11.57
2017-11-22T09:56:03.461Z,14.93
2017-11-22T09:58:30.006Z,9.73
2017-11-22T10:00:56.425Z,15.17
2017-11-22T10:03:23.019Z,7.93
2017-11-22T10:05:49.554Z,9.43
2017-11-22T10:08:16.022Z,9.40
2017-11-22T10:10:42.520Z,11.83
2017-11-22T10:13:08.992Z,10.90
2017-11-22T10:15:35.371Z,12.23
2017-11-22T10:18:05.954Z,8.80
2017-11-22T10:20:32.552Z,7.73
2017-11-22T10:22:59.229Z,10.17
2017-11-22T10:25:25.858Z,10.27
2017-11-22T10:27:58.290Z,7.43
2017-11-22T10:30:29.857Z,7.67
2017-11-22T10:32:56.329Z,9.90
2017-11-22T10:35:22.852Z,7.87
2017-11-22T10:37:49.289Z,6.90
2017-11-22T10:40:15.717Z,7.10
2017-11-22T10:42:42.201Z,10.13
2017-11-22T10:45:08.660Z,7.50
2017-11-22T10:47:35.150Z,8.53
2017-11-22T10:50:02.017Z,6.90
2017-11-22T10:52:28.474Z,5.30
2017-11-22T10:54:54.881Z,8.10
2017-11-22T10:57:21.358Z,6.80
2017-11-22T10:59:47.826Z,5.23
2017-11-22T11:02:14.405Z,6.27
2017-11-22T11:04:40.921Z,4.80
2017-11-22T11:07:07.421Z,7.57
2017-11-22T11:09:33.838Z,8.77
2017-11-22T11:12:00.330Z,5.30
2017-11-22T11:14:26.726Z,5.97
2017-11-22T11:16:53.251Z,7.87
2017-11-22T11:19:19.690Z,10.93
2017-11-22T11:21:46.370Z,7.67
2017-11-22T11:24:12.865Z,9.00
2017-11-22T11:26:39.357Z,6.73
2017-11-22T11:29:05.802Z,7.57
2017-11-22T11:31:32.265Z,7.10
2017-11-22T11:33:58.682Z,10.70
2017-11-22T11:36:31.405Z,7.17
2017-11-22T11:38:57.990Z,6.90
2017-11-22T11:41:24.572Z,6.40
2017-11-22T11:43:51.127Z,6.73
2017-11-22T11:46:17.733Z,5.00
2017-11-22T11:48:44.281Z,9.70
2017-11-22T11:51:10.730Z,5.63
2017-11-22T11:53:37.154Z,6.13
2017-11-22T11:56:03.703Z,5.93
2017-11-22T11:58:30.189Z,6.63
2017-11-22T12:00:57.003Z,13.60
2017-11-22T12:03:23.433Z,17.80
2017-11-22T12:05:50.173Z,14.17
2017-11-22T12:08:16.614Z,13.07
2017-11-22T12:10:43.032Z,8.67
2017-11-22T12:13:09.780Z,10.70
2017-11-22T12:15:36.189Z,10.30
2017-11-22T12:18:02.689Z,12.63
2017-11-22T12:20:29.117Z,10.27
2017-11-22T12:22:56.510Z,10.07
2017-11-22T12:25:22.983Z,7.87
2017-11-22T12:27:49.423Z,5.67
2017-11-22T12:30:15.865Z,5.87
2017-11-22T12:32:42.350Z,5.77
2017-11-22T12:35:09.095Z,6.53
2017-11-22T12:37:35.513Z,7.67
2017-11-22T12:40:01.943Z,5.23
2017-11-22T12:42:32.204Z,10.20
2017-11-22T12:44:58.582Z,10.50
2017-11-22T12:47:25.178Z,10.43
2017-11-22T12:49:58.662Z,8.33
2017-11-22T12:52:25.134Z,15.20
2017-11-22T12:54:51.606Z,9.87
2017-11-22T12:57:18.046Z,12.63
2017-11-22T12:59:44.513Z,8.93
2017-11-22T13:02:10.909Z,6.70
2017-11-22T13:04:37.345Z,7.27
2017-11-22T13:07:03.959Z,8.07
2017-11-22T13:09:30.852Z,10.13
2017-11-22T13:11:58.383Z,11.27
2017-11-22T13:14:25.215Z,10.30
2017-11-22T13:16:51.674Z,9.73
2017-11-22T13:19:18.192Z,10.70
2017-11-22T13:21:44.669Z,11.13
2017-11-22T13:24:11.361Z,9.07
2017-11-22T13:26:37.794Z,9.23
2017-11-22T13:29:04.259Z,8.63
2017-11-22T13:31:30.773Z,9.43
2017-11-22T13:33:57.354Z,9.13
2017-11-22T13:36:24.007Z,11.40
2017-11-22T13:38:50.494Z,11.33
2017-11-22T13:41:16.958Z,15.47
2017-11-22T13:43:43.506Z,12.53
2017-11-22T13:46:12.910Z,14.57
2017-11-22T13:48:39.494Z,13.67
2017-11-22T13:51:06.002Z,13.43
2017-11-22T13:53:32.489Z,8.87
2017-11-22T13:55:59.122Z,13.83
2017-11-22T13:58:25.761Z,13.57
2017-11-22T14:00:52.360Z,16.13
2017-11-22T14:03:18.885Z,16.73
2017-11-22T14:05:45.474Z,20.63
2017-11-22T14:08:11.961Z,19.57
2017-11-22T14:10:38.517Z,19.70
2017-11-22T14:13:05.110Z,21.43
2017-11-22T14:15:31.741Z,23.70
2017-11-22T14:17:58.333Z,29.40
2017-11-22T14:20:25.005Z,30.33
2017-11-22T14:22:51.473Z,32.60
2017-11-22T14:25:18.090Z,33.83
2017-11-22T14:27:44.645Z,29.03
2017-11-22T14:30:11.274Z,41.63
2017-11-22T14:32:37.769Z,47.40
2017-11-22T14:35:04.338Z,55.33
2017-11-22T14:37:30.802Z,55.87
2017-11-22T14:39:57.480Z,56.53
2017-11-22T14:42:24.014Z,66.07
2017-11-22T14:44:50.576Z,65.63
2017-11-22T14:47:17.025Z,70.07
2017-11-22T14:49:43.578Z,69.60
2017-11-22T14:52:10.107Z,83.10
2017-11-22T14:54:36.729Z,92.83
2017-11-22T14:57:03.265Z,98.90
2017-11-22T14:59:29.866Z,85.80
2017-11-22T15:01:56.277Z,92.80
2017-11-22T15:04:22.839Z,88.97
2017-11-22T15:06:49.570Z,93.13
2017-11-22T15:09:16.018Z,91.57
2017-11-22T15:11:42.508Z,57.00
2017-11-22T15:14:08.995Z,94.63
2017-11-22T15:16:35.458Z,88.37
2017-11-22T15:19:02.607Z,86.30
2017-11-22T15:21:29.078Z,94.47
2017-11-22T15:23:55.605Z,167.10
2017-11-22T15:26:22.167Z,158.03
2017-11-22T15:28:48.806Z,172.00
2017-11-22T15:31:15.272Z,207.77
2017-11-22T15:33:43.740Z,134.03
2017-11-22T15:36:10.564Z,196.10
2017-11-22T15:38:39.825Z,263.93
2017-11-22T15:41:06.482Z,245.30
2017-11-22T15:43:32.977Z,241.97
2017-11-22T15:45:59.413Z,217.03
2017-11-22T15:48:26.006Z,218.17
2017-11-22T15:50:52.614Z,225.90
2017-11-22T15:53:19.093Z,114.07
2017-11-22T15:55:45.564Z,199.07
2017-11-22T15:58:11.973Z,151.97
2017-11-22T16:00:38.480Z,155.73
2017-11-22T16:03:04.997Z,198.90
2017-11-22T16:05:31.374Z,182.63
2017-11-22T16:07:57.894Z,192.00
2017-11-22T16:10:24.529Z,194.27
2017-11-22T16:12:50.905Z,190.50
2017-11-22T16:15:17.333Z,174.30
2017-11-22T16:17:43.791Z,167.17
2017-11-22T16:20:10.253Z,166.60
2017-11-22T16:22:36.721Z,172.60
2017-11-22T16:25:03.306Z,175.60
2017-11-22T16:27:30.612Z,141.67
2017-11-22T16:29:57.120Z,184.50
2017-11-22T16:32:23.576Z,145.93
2017-11-22T16:34:49.978Z,194.70
2017-11-22T16:37:16.412Z,103.63
2017-11-22T16:39:43.136Z,161.97
2017-11-22T16:42:09.566Z,218.30
2017-11-22T16:44:36.494Z,226.87
2017-11-22T16:47:03.939Z,143.20
2017-11-22T16:49:30.427Z,230.33
2017-11-22T16:51:56.910Z,248.87
2017-11-22T16:54:23.437Z,273.97
2017-11-22T16:56:49.967Z,284.60
2017-11-22T16:59:16.444Z,245.50
2017-11-22T17:01:42.943Z,285.57
2017-11-22T17:04:09.407Z,291.40
2017-11-22T17:06:36.842Z,198.47
2017-11-22T17:09:03.627Z,287.87
2017-11-22T17:11:30.097Z,279.80
2017-11-22T17:13:56.517Z,121.73
2017-11-22T17:16:23.001Z,257.23
2017-11-22T17:18:49.442Z,202.47
2017-11-22T17:21:15.876Z,214.07
2017-11-22T17:23:42.610Z,297.43
2017-11-22T17:26:09.022Z,328.73
2017-11-22T17:28:35.693Z,320.70
2017-11-22T17:31:02.961Z,313.40
2017-11-22T17:33:29.369Z,322.10
2017-11-22T17:35:55.804Z,305.03
2017-11-22T17:38:22.219Z,313.07
2017-11-22T17:40:48.666Z,302.53
2017-11-22T17:43:15.535Z,331.03
2017-11-22T17:45:41.970Z,330.67
2017-11-22T17:48:08.505Z,351.73
2017-11-22T17:50:35.073Z,342.70
2017-11-22T17:53:01.806Z,357.30
2017-11-22T17:55:28.270Z,363.03
2017-11-22T17:57:54.747Z,367.80
2017-11-22T18:00:21.342Z,361.60
2017-11-22T18:02:47.770Z,358.73
2017-11-22T18:05:14.262Z,328.00
2017-11-22T18:07:40.901Z,329.80
2017-11-22T18:10:07.413Z,320.87
2017-11-22T18:12:33.825Z,308.53
2017-11-22T18:15:00.270Z,292.93
2017-11-22T18:17:26.664Z,269.37
2017-11-22T18:19:53.076Z,231.43
2017-11-22T18:22:19.602Z,208.37
2017-11-22T18:24:47.029Z,193.87
2017-11-22T18:27:13.434Z,162.37
2017-11-22T18:29:39.950Z,157.60
2017-11-22T18:32:06.335Z,133.63
2017-11-22T18:34:32.770Z,137.50
2017-11-22T18:36:59.399Z,120.17
2017-11-22T18:39:25.842Z,114.57
2017-11-22T18:41:52.268Z,110.10
2017-11-22T18:44:18.742Z,106.10
2017-11-22T18:46:45.142Z,95.57
2017-11-22T18:49:12.525Z,89.67
2017-11-22T18:51:39.026Z,87.40
2017-11-22T18:54:05.425Z,79.33
2017-11-22T18:56:31.825Z,89.17
2017-11-22T18:58:58.390Z,98.40
2017-11-22T19:01:25.242Z,83.60
2017-11-22T19:03:51.730Z,85.67
2017-11-22T19:06:18.225Z,80.47
2017-11-22T19:08:44.655Z,80.33
2017-11-22T19:11:11.068Z,75.23
2017-11-22T19:13:37.487Z,72.20
2017-11-22T19:16:03.992Z,74.67
2017-11-22T19:18:30.389Z,72.20
2017-11-22T19:20:57.711Z,69.33
2017-11-22T19:23:24.086Z,67.23
2017-11-22T19:25:50.609Z,70.03
2017-11-22T19:28:17.120Z,64.80
2017-11-22T19:30:43.790Z,69.40
2017-11-22T19:33:10.261Z,67.20
2017-11-22T19:35:36.842Z,66.27
2017-11-22T19:38:03.363Z,62.53
2017-11-22T19:40:29.870Z,66.80
2017-11-22T19:42:58.376Z,75.73
2017-11-22T19:45:26.294Z,75.27
2017-11-22T19:47:53.718Z,78.80
2017-11-22T19:50:20.183Z,80.67
2017-11-22T19:52:47.586Z,94.73
2017-11-22T19:55:14.314Z,92.43
2017-11-22T19:57:40.803Z,90.13
2017-11-22T20:00:07.199Z,93.47
2017-11-22T20:02:33.665Z,100.07
2017-11-22T20:05:00.339Z,109.97
2017-11-22T20:07:38.777Z,114.60
2017-11-22T20:10:05.287Z,113.90
2017-11-22T20:12:31.710Z,116.27
2017-11-22T20:14:58.129Z,122.50
2017-11-22T20:17:24.526Z,113.70
2017-11-22T20:19:50.990Z,100.40
2017-11-22T20:22:17.372Z,110.73
2017-11-22T20:24:44.809Z,113.10
2017-11-22T20:27:11.175Z,98.73
2017-11-22T20:29:37.526Z,108.40
2017-11-22T20:32:05.030Z,105.80
2017-11-22T20:34:31.518Z,91.93
2017-11-22T20:36:57.897Z,97.00
2017-11-22T20:39:24.405Z,94.17
2017-11-22T20:41:54.596Z,99.33
2017-11-22T20:44:20.962Z,106.40
2017-11-22T20:46:47.395Z,101.30
2017-11-22T20:49:13.761Z,98.73
2017-11-22T20:51:40.133Z,105.93
2017-11-22T20:54:06.546Z,90.40
2017-11-22T20:56:32.901Z,99.57
2017-11-22T20:58:59.254Z,111.33
2017-11-22T21:01:25.713Z,108.53
2017-11-22T21:03:52.074Z,97.50
2017-11-22T21:06:18.418Z,105.53
2017-11-22T21:08:44.826Z,107.50
2017-11-22T21:11:11.343Z,110.17
2017-11-22T21:13:38.749Z,110.30
2017-11-22T21:16:05.234Z,119.57
2017-11-22T21:18:31.702Z,115.57
2017-11-22T21:20:58.098Z,118.63
2017-11-22T21:23:24.563Z,118.57
2017-11-22T21:25:51.069Z,105.77
2017-11-22T21:28:17.453Z,114.70
2017-11-22T21:30:43.841Z,116.17
2017-11-22T21:33:10.222Z,112.73
2017-11-22T21:35:36.649Z,105.63
2017-11-22T21:38:03.234Z,101.30
2017-11-22T21:40:29.620Z,98.60
2017-11-22T21:42:56.049Z,96.07
2017-11-22T21:45:22.475Z,87.10
2017-11-22T21:47:48.865Z,83.40
2017-11-22T21:50:15.265Z,85.97
2017-11-22T21:52:41.810Z,78.57
2017-11-22T21:55:08.246Z,79.63
2017-11-22T21:57:34.702Z,86.30
2017-11-22T22:00:01.094Z,86.07
2017-11-22T22:02:27.497Z,96.17
2017-11-22T22:04:53.933Z,91.47
2017-11-22T22:07:20.507Z,89.00
2017-11-22T22:09:46.847Z,73.47
2017-11-22T22:12:13.301Z,65.63
2017-11-22T22:14:39.710Z,69.63
2017-11-22T22:17:06.087Z,66.73
2017-11-22T22:19:32.524Z,66.97
2017-11-22T22:21:59.136Z,70.70
2017-11-22T22:24:25.493Z,82.87
2017-11-22T22:26:51.833Z,89.60
2017-11-22T22:29:18.334Z,88.07
2017-11-22T22:31:44.741Z,83.80
2017-11-22T22:34:11.121Z,76.93
2017-11-22T22:36:37.536Z,70.57
2017-11-22T22:39:04.097Z,62.37
2017-11-22T22:41:30.503Z,64.10
2017-11-22T22:43:56.959Z,55.03
2017-11-22T22:46:23.378Z,51.33
2017-11-22T22:48:49.833Z,48.50
2017-11-22T22:51:16.269Z,47.23
2017-11-22T22:53:42.746Z,51.60
2017-11-22T22:56:09.075Z,42.43
2017-11-22T22:58:35.562Z,44.47
2017-11-22T23:01:01.953Z,41.03
2017-11-22T23:03:28.399Z,44.33
2017-11-22T23:05:54.868Z,37.53
2017-11-22T23:08:21.237Z,42.47
2017-11-22T23:10:47.665Z,37.80
2017-11-22T23:13:14.205Z,38.20
2017-11-22T23:15:40.647Z,36.17
2017-11-22T23:18:06.998Z,34.33
2017-11-22T23:20:33.410Z,41.53
2017-11-22T23:22:59.877Z,38.67
2017-11-22T23:25:26.299Z,34.60
2017-11-22T23:27:52.713Z,34.03
2017-11-22T23:30:19.118Z,36.50
2017-11-22T23:32:45.655Z,34.27
2017-11-22T23:35:12.238Z,32.00
2017-11-22T23:37:38.773Z,35.17
2017-11-22T23:40:05.181Z,29.30
2017-11-22T23:42:31.613Z,30.70
2017-11-22T23:44:58.005Z,29.17
2017-11-22T23:47:24.466Z,27.77
2017-11-22T23:49:51.017Z,26.03
2017-11-22T23:52:17.477Z,25.90
2017-11-22T23:54:43.941Z,27.63
2017-11-22T23:57:10.418Z,29.50
2017-11-22T23:59:36.872Z,29.40
